createdAt,value
2023-05-22T00:00:40.074Z,63.13
2023-05-22T00:01:57.195Z,63.18
2023-05-22T00:03:00.691Z,63.19
2023-05-22T00:04:04.543Z,63.31
2023-05-22T00:05:07.644Z,63.46
2023-05-22T00:06:12.033Z,63.59
2023-05-22T00:07:14.825Z,63.40
2023-05-22T00:08:17.581Z,63.68
2023-05-22T00:09:20.582Z,63.48
2023-05-22T00:10:23.388Z,63.57
2023-05-22T00:11:26.373Z,63.76
2023-05-22T00:12:29.311Z,63.81
2023-05-22T00:13:32.092Z,63.84
2023-05-22T00:14:34.861Z,63.95
2023-05-22T00:15:37.626Z,64.10
2023-05-22T00:16:41.302Z,64.19
2023-05-22T00:17:44.535Z,64.28
2023-05-22T00:18:47.564Z,64.39
2023-05-22T00:19:51.550Z,64.52
2023-05-22T00:20:54.338Z,64.50
2023-05-22T00:21:57.314Z,64.59
2023-05-22T00:23:01.257Z,64.76
2023-05-22T00:24:04.461Z,64.80
2023-05-22T00:25:07.534Z,64.88
2023-05-22T00:26:10.391Z,64.91
2023-05-22T00:27:13.242Z,64.80
2023-05-22T00:28:16.074Z,64.87
2023-05-22T00:29:18.852Z,64.98
2023-05-22T00:30:21.579Z,65.08
2023-05-22T00:31:24.315Z,65.10
2023-05-22T00:32:27.266Z,65.13
2023-05-22T00:33:30.186Z,65.14
2023-05-22T00:34:33.105Z,65.26
2023-05-22T00:35:36.072Z,65.35
2023-05-22T00:36:38.829Z,65.58
2023-05-22T00:37:41.671Z,65.52
2023-05-22T00:38:44.657Z,65.61
2023-05-22T00:39:47.632Z,65.74
2023-05-22T00:40:50.406Z,65.64
2023-05-22T00:41:53.088Z,65.73
2023-05-22T00:42:55.971Z,65.81
2023-05-22T00:43:58.659Z,65.70
2023-05-22T00:45:01.409Z,65.73
2023-05-22T00:46:04.218Z,65.80
2023-05-22T00:47:08.122Z,65.77
2023-05-22T00:48:12.336Z,66.05
2023-05-22T00:49:15.066Z,66.12
2023-05-22T00:50:19.068Z,66.00
2023-05-22T00:51:22.276Z,66.22
2023-05-22T00:52:25.513Z,66.18
2023-05-22T00:53:28.693Z,66.14
2023-05-22T00:54:31.986Z,66.35
2023-05-22T00:55:34.952Z,66.46
2023-05-22T00:56:37.769Z,66.27
2023-05-22T00:57:42.033Z,66.29
2023-05-22T00:58:45.241Z,66.45
2023-05-22T00:59:48.617Z,66.47
2023-05-22T01:00:51.482Z,66.56
2023-05-22T01:01:54.980Z,66.62
2023-05-22T01:02:58.004Z,66.77
2023-05-22T01:04:02.123Z,66.73
2023-05-22T01:05:07.035Z,66.99
2023-05-22T01:06:10.075Z,66.97
2023-05-22T01:07:13.186Z,66.90
2023-05-22T01:08:15.901Z,67.00
2023-05-22T01:09:18.818Z,67.06
2023-05-22T01:10:22.908Z,67.10
2023-05-22T01:11:28.343Z,67.10
2023-05-22T01:12:34.535Z,67.33
2023-05-22T01:13:58.845Z,67.23
2023-05-22T01:15:02.928Z,67.39
2023-05-22T01:16:19.485Z,67.40
2023-05-22T01:17:28.782Z,67.42
2023-05-22T01:18:39.689Z,67.38
2023-05-22T01:19:42.405Z,67.36
2023-05-22T01:21:06.566Z,67.48
2023-05-22T01:22:28.244Z,67.37
2023-05-22T01:23:49.552Z,67.67
2023-05-22T01:25:04.140Z,67.59
2023-05-22T01:26:20.848Z,67.76
2023-05-22T01:27:47.350Z,67.80
2023-05-22T01:29:08.697Z,67.77
2023-05-22T01:32:02.617Z,67.80
2023-05-22T01:33:07.108Z,67.80
2023-05-22T01:34:11.756Z,67.84
2023-05-22T01:35:17.712Z,67.95
2023-05-22T01:36:24.397Z,67.82
2023-05-22T01:37:27.811Z,67.90
2023-05-22T01:38:31.310Z,67.97
2023-05-22T01:39:36.371Z,68.09
2023-05-22T01:40:39.624Z,68.13
2023-05-22T01:41:42.803Z,68.18
2023-05-22T01:42:47.053Z,68.23
2023-05-22T01:43:50.074Z,68.37
2023-05-22T01:44:52.788Z,68.39
2023-05-22T01:45:55.655Z,68.36
2023-05-22T01:47:00.594Z,68.48
2023-05-22T01:48:04.161Z,68.62
2023-05-22T01:49:09.068Z,68.52
2023-05-22T01:50:12.062Z,68.51
2023-05-22T01:51:25.909Z,68.52
2023-05-22T01:52:35.186Z,68.64
2023-05-22T01:53:47.831Z,68.55
2023-05-22T01:54:52.761Z,68.71
2023-05-22T01:56:05.372Z,68.69
2023-05-22T01:57:26.866Z,68.66
2023-05-22T01:58:41.604Z,68.79
2023-05-22T01:59:45.689Z,68.89
2023-05-22T02:00:51.607Z,68.87
2023-05-22T02:01:55.286Z,69.01
2023-05-22T02:03:01.600Z,69.02
2023-05-22T02:04:05.764Z,68.84
2023-05-22T02:05:11.401Z,68.76
2023-05-22T02:06:14.867Z,68.88
2023-05-22T02:07:19.802Z,69.13
2023-05-22T02:08:23.062Z,69.05
2023-05-22T02:09:28.198Z,69.19
2023-05-22T02:10:31.776Z,69.09
2023-05-22T02:11:35.605Z,69.36
2023-05-22T02:12:39.567Z,69.42
2023-05-22T02:13:42.753Z,69.39
2023-05-22T02:14:45.696Z,69.53
2023-05-22T02:15:49.321Z,69.53
2023-05-22T02:16:52.496Z,69.58
2023-05-22T02:17:55.557Z,69.58
2023-05-22T02:18:58.992Z,69.55
2023-05-22T02:20:01.749Z,69.72
2023-05-22T02:21:08.677Z,69.72
2023-05-22T02:22:13.809Z,69.71
2023-05-22T02:23:16.765Z,69.64
2023-05-22T02:24:19.811Z,69.64
2023-05-22T02:25:22.638Z,69.64
2023-05-22T02:26:25.686Z,69.69
2023-05-22T02:27:29.411Z,69.61
2023-05-22T02:28:33.553Z,69.84
2023-05-22T02:29:36.386Z,69.88
2023-05-22T02:30:39.859Z,69.80
2023-05-22T02:31:43.396Z,69.81
2023-05-22T02:32:46.596Z,69.92
2023-05-22T02:33:49.469Z,69.88
2023-05-22T02:34:54.626Z,70.05
2023-05-22T02:35:57.916Z,69.83
2023-05-22T02:37:03.718Z,69.94
2023-05-22T02:38:07.117Z,69.93
2023-05-22T02:39:10.298Z,70.08
2023-05-22T02:40:13.193Z,70.02
2023-05-22T02:41:16.060Z,69.99
2023-05-22T02:42:19.114Z,70.18
2023-05-22T02:43:21.948Z,70.28
2023-05-22T02:44:24.708Z,70.19
2023-05-22T02:45:27.483Z,70.25
2023-05-22T02:46:30.385Z,70.28
2023-05-22T02:47:33.357Z,70.32
2023-05-22T02:48:36.236Z,70.36
2023-05-22T02:49:38.966Z,70.40
2023-05-22T02:50:41.708Z,70.40
2023-05-22T02:51:47.671Z,70.42
2023-05-22T02:52:50.724Z,70.37
2023-05-22T02:53:53.575Z,70.55
2023-05-22T02:54:56.289Z,70.38
2023-05-22T02:55:59.258Z,70.60
2023-05-22T02:57:02.961Z,70.43
2023-05-22T02:58:06.008Z,70.52
2023-05-22T02:59:08.789Z,70.58
2023-05-22T03:00:12.332Z,70.53
2023-05-22T03:01:15.666Z,70.64
2023-05-22T03:02:18.550Z,70.57
2023-05-22T03:03:21.568Z,70.74
2023-05-22T03:04:24.369Z,70.60
2023-05-22T03:05:27.140Z,70.60
2023-05-22T03:06:30.531Z,70.78
2023-05-22T03:07:34.811Z,70.83
2023-05-22T03:08:41.683Z,70.69
2023-05-22T03:09:44.554Z,70.76
2023-05-22T03:10:48.402Z,70.83
2023-05-22T03:11:51.240Z,71.01
2023-05-22T03:12:54.207Z,70.89
2023-05-22T03:13:57.338Z,70.91
2023-05-22T03:15:00.317Z,70.94
2023-05-22T03:16:03.266Z,70.89
2023-05-22T03:17:06.598Z,70.99
2023-05-22T03:18:09.410Z,70.92
2023-05-22T03:19:16.016Z,71.05
2023-05-22T03:20:19.011Z,71.00
2023-05-22T03:21:21.777Z,71.07
2023-05-22T03:22:24.556Z,71.12
2023-05-22T03:23:27.557Z,71.09
2023-05-22T03:24:30.585Z,71.27
2023-05-22T03:25:33.565Z,71.29
2023-05-22T03:26:37.305Z,71.25
2023-05-22T03:27:42.121Z,71.33
2023-05-22T03:28:45.834Z,71.49
2023-05-22T03:29:48.797Z,71.34
2023-05-22T03:30:52.567Z,71.35
2023-05-22T03:32:03.466Z,71.43
2023-05-22T03:33:06.346Z,71.62
2023-05-22T03:34:09.460Z,71.69
2023-05-22T03:35:15.602Z,71.58
2023-05-22T03:36:18.970Z,71.70
2023-05-22T03:37:21.859Z,71.79
2023-05-22T03:38:24.893Z,71.96
2023-05-22T03:39:28.543Z,72.01
2023-05-22T03:40:35.386Z,72.10
2023-05-22T03:41:38.640Z,72.11
2023-05-22T03:42:41.425Z,72.15
2023-05-22T03:43:45.172Z,72.05
2023-05-22T03:44:50.036Z,71.99
2023-05-22T03:45:53.163Z,72.04
2023-05-22T03:46:56.127Z,72.01
2023-05-22T03:47:59.050Z,72.21
2023-05-22T03:49:01.911Z,72.18
2023-05-22T03:50:04.866Z,72.10
2023-05-22T03:51:07.723Z,72.15
2023-05-22T03:52:10.998Z,72.10
2023-05-22T03:53:13.716Z,72.08
2023-05-22T03:54:16.574Z,72.11
2023-05-22T03:55:19.491Z,72.16
2023-05-22T03:56:22.722Z,72.12
2023-05-22T03:57:25.499Z,71.98
2023-05-22T03:58:28.316Z,71.92
2023-05-22T03:59:31.154Z,71.86
2023-05-22T04:00:34.828Z,71.80
2023-05-22T04:01:39.147Z,71.89
2023-05-22T04:02:45.175Z,71.61
2023-05-22T04:03:48.614Z,71.63
2023-05-22T04:04:51.530Z,71.75
2023-05-22T04:05:54.629Z,71.77
2023-05-22T04:06:58.305Z,71.96
2023-05-22T04:08:01.149Z,71.73
2023-05-22T04:09:04.539Z,71.66
2023-05-22T04:10:07.700Z,71.68
2023-05-22T04:11:11.117Z,71.48
2023-05-22T04:12:13.873Z,71.36
2023-05-22T04:13:18.969Z,71.43
2023-05-22T04:14:21.721Z,71.29
2023-05-22T04:15:24.496Z,71.40
2023-05-22T04:16:27.535Z,71.14
2023-05-22T04:17:33.795Z,71.08
2023-05-22T04:18:36.881Z,71.04
2023-05-22T04:19:39.776Z,71.18
2023-05-22T04:20:45.386Z,71.06
2023-05-22T04:21:48.760Z,70.97
2023-05-22T04:22:54.492Z,70.67
2023-05-22T04:23:57.204Z,70.69
2023-05-22T04:25:00.049Z,71.05
2023-05-22T04:26:03.106Z,71.01
2023-05-22T04:27:06.254Z,71.29
2023-05-22T04:28:09.807Z,71.30
2023-05-22T04:29:14.548Z,71.12
2023-05-22T04:30:18.490Z,70.74
2023-05-22T04:31:23.145Z,70.70
2023-05-22T04:32:26.351Z,70.47
2023-05-22T04:33:30.295Z,70.48
2023-05-22T04:34:33.726Z,70.33
2023-05-22T04:35:36.406Z,70.29
2023-05-22T04:36:40.218Z,70.06
2023-05-22T04:37:45.554Z,70.02
2023-05-22T04:38:48.834Z,69.73
2023-05-22T04:39:53.591Z,69.39
2023-05-22T04:40:56.955Z,69.35
2023-05-22T04:42:05.767Z,69.41
2023-05-22T04:43:08.968Z,69.25
2023-05-22T04:44:11.767Z,68.92
2023-05-22T04:45:14.483Z,69.01
2023-05-22T04:46:17.477Z,68.85
2023-05-22T04:47:20.526Z,68.97
2023-05-22T04:48:23.427Z,68.65
2023-05-22T04:49:26.345Z,68.47
2023-05-22T04:50:32.417Z,68.50
2023-05-22T04:51:35.286Z,68.40
2023-05-22T04:52:38.633Z,68.20
2023-05-22T04:53:41.609Z,68.13
2023-05-22T04:54:46.682Z,67.84
2023-05-22T04:55:49.596Z,67.63
2023-05-22T04:56:52.457Z,67.52
2023-05-22T04:57:56.384Z,67.58
2023-05-22T04:59:00.053Z,67.51
2023-05-22T05:00:04.359Z,67.48
2023-05-22T05:01:09.493Z,67.48
2023-05-22T05:02:13.328Z,67.47
2023-05-22T05:03:16.303Z,67.23
2023-05-22T05:04:19.225Z,67.40
2023-05-22T05:05:22.090Z,67.22
2023-05-22T05:06:25.244Z,66.69
2023-05-22T05:07:29.520Z,66.63
2023-05-22T05:08:33.181Z,66.15
2023-05-22T05:09:36.038Z,66.09
2023-05-22T05:10:38.958Z,66.48
2023-05-22T05:11:41.961Z,66.15
2023-05-22T05:12:45.296Z,65.80
2023-05-22T05:13:48.088Z,65.68
2023-05-22T05:14:51.064Z,65.57
2023-05-22T05:15:54.763Z,65.67
2023-05-22T05:16:59.544Z,65.51
2023-05-22T05:18:02.360Z,65.77
2023-05-22T05:19:05.113Z,65.80
2023-05-22T05:20:08.499Z,65.74
2023-05-22T05:21:11.287Z,65.74
2023-05-22T05:22:14.131Z,65.57
2023-05-22T05:23:17.126Z,65.57
2023-05-22T05:24:19.995Z,65.42
2023-05-22T05:25:24.059Z,65.26
2023-05-22T05:26:27.389Z,65.41
2023-05-22T05:27:30.579Z,65.41
2023-05-22T05:28:33.460Z,65.46
2023-05-22T05:29:36.964Z,65.25
2023-05-22T05:30:45.947Z,65.07
2023-05-22T05:32:04.298Z,64.90
2023-05-22T05:33:25.695Z,64.95
2023-05-22T05:34:37.615Z,64.63
2023-05-22T05:35:46.231Z,64.31
2023-05-22T05:36:49.837Z,64.49
2023-05-22T05:37:53.138Z,64.74
2023-05-22T05:38:58.408Z,65.03
2023-05-22T05:40:01.838Z,64.57
2023-05-22T05:41:06.069Z,64.48
2023-05-22T05:42:09.112Z,64.51
2023-05-22T05:43:15.130Z,64.38
2023-05-22T05:44:18.040Z,64.43
2023-05-22T05:45:21.910Z,64.40
2023-05-22T05:46:24.746Z,64.27
2023-05-22T05:47:29.679Z,64.03
2023-05-22T05:48:33.110Z,64.04
2023-05-22T05:49:36.078Z,64.07
2023-05-22T05:50:39.695Z,63.85
2023-05-22T05:51:43.314Z,63.82
2023-05-22T05:52:47.227Z,63.52
2023-05-22T05:53:52.790Z,63.48
2023-05-22T05:54:55.954Z,63.39
2023-05-22T05:55:59.212Z,63.34
2023-05-22T05:57:03.482Z,63.43
2023-05-22T05:58:06.348Z,63.32
2023-05-22T05:59:32.226Z,63.29
2023-05-22T06:00:55.212Z,63.30
2023-05-22T06:01:58.245Z,63.12
2023-05-22T06:03:03.136Z,63.24
2023-05-22T06:04:19.052Z,63.01
2023-05-22T06:05:23.219Z,62.90
2023-05-22T06:06:30.773Z,62.96
2023-05-22T06:07:58.250Z,62.87
2023-05-22T06:09:01.236Z,63.00
2023-05-22T06:10:07.394Z,62.99
2023-05-22T06:11:18.723Z,62.54
2023-05-22T06:12:29.914Z,62.70
2023-05-22T06:13:32.706Z,62.29
2023-05-22T06:14:35.731Z,62.15
2023-05-22T06:15:38.484Z,62.29
2023-05-22T06:16:41.468Z,61.79
2023-05-22T06:17:44.512Z,61.92
2023-05-22T06:18:49.580Z,62.03
2023-05-22T06:19:52.804Z,62.15
2023-05-22T06:20:58.871Z,61.87
2023-05-22T06:22:01.641Z,61.75
2023-05-22T06:23:05.415Z,61.92
2023-05-22T06:24:08.221Z,61.83
2023-05-22T06:25:11.149Z,61.77
2023-05-22T06:26:13.951Z,61.66
2023-05-22T06:27:17.361Z,61.74
2023-05-22T06:28:20.965Z,61.78
2023-05-22T06:29:24.035Z,62.04
2023-05-22T06:30:39.480Z,62.17
2023-05-22T06:31:44.698Z,61.73
2023-05-22T06:32:48.225Z,61.80
2023-05-22T06:33:53.172Z,61.45
2023-05-22T06:34:56.471Z,61.50
2023-05-22T06:35:59.747Z,61.46
2023-05-22T06:37:03.760Z,61.29
2023-05-22T06:38:09.460Z,61.57
2023-05-22T06:39:15.032Z,61.51
2023-05-22T06:40:43.992Z,61.28
2023-05-22T06:41:55.872Z,61.16
2023-05-22T06:42:59.630Z,61.36
2023-05-22T06:44:13.740Z,61.36
2023-05-22T06:45:17.913Z,61.46
2023-05-22T06:46:28.298Z,61.37
2023-05-22T06:47:35.219Z,61.05
2023-05-22T06:48:38.492Z,60.98
2023-05-22T06:49:46.123Z,61.03
2023-05-22T06:50:49.038Z,60.70
2023-05-22T06:51:51.887Z,60.56
2023-05-22T06:52:54.693Z,60.33
2023-05-22T06:53:57.600Z,60.34
2023-05-22T06:55:05.720Z,60.33
2023-05-22T06:56:09.753Z,60.22
2023-05-22T06:57:30.357Z,60.09
2023-05-22T06:58:34.194Z,60.41
2023-05-22T06:59:38.887Z,60.57
2023-05-22T07:00:41.829Z,60.23
2023-05-22T07:01:50.424Z,59.99
2023-05-22T07:02:57.692Z,59.87
2023-05-22T07:04:06.111Z,59.86
2023-05-22T07:05:13.653Z,59.81
2023-05-22T07:06:26.342Z,59.91
2023-05-22T07:07:29.235Z,59.86
2023-05-22T07:08:32.705Z,59.18
2023-05-22T07:09:35.978Z,59.10
2023-05-22T07:10:40.394Z,58.68
2023-05-22T07:11:44.088Z,58.82
2023-05-22T07:12:47.913Z,58.77
2023-05-22T07:13:51.152Z,58.63
2023-05-22T07:14:54.447Z,58.62
2023-05-22T07:15:58.110Z,58.65
2023-05-22T07:17:01.324Z,58.68
2023-05-22T07:18:09.772Z,58.78
2023-05-22T07:19:14.376Z,58.96
2023-05-22T07:20:17.806Z,58.74
2023-05-22T07:21:27.623Z,59.05
2023-05-22T07:22:31.255Z,59.06
2023-05-22T07:23:34.087Z,58.96
2023-05-22T07:24:36.936Z,58.89
2023-05-22T07:25:39.991Z,58.51
2023-05-22T07:26:46.900Z,58.29
2023-05-22T07:27:50.114Z,58.23
2023-05-22T07:28:53.095Z,58.14
2023-05-22T07:29:56.198Z,58.22
2023-05-22T07:31:00.705Z,58.42
2023-05-22T07:32:03.843Z,58.52
2023-05-22T07:33:07.469Z,58.56
2023-05-22T07:34:11.209Z,58.25
2023-05-22T07:35:14.054Z,58.04
2023-05-22T07:36:18.967Z,57.67
2023-05-22T07:37:22.329Z,57.83
2023-05-22T07:38:25.344Z,57.66
2023-05-22T07:39:33.052Z,57.57
2023-05-22T07:40:36.081Z,57.66
2023-05-22T07:41:38.866Z,57.24
2023-05-22T07:42:42.341Z,56.90
2023-05-22T07:43:45.980Z,56.79
2023-05-22T07:44:50.763Z,56.71
2023-05-22T07:45:54.195Z,56.50
2023-05-22T07:46:59.700Z,56.28
2023-05-22T07:48:04.438Z,56.35
2023-05-22T07:49:09.034Z,56.34
2023-05-22T07:50:12.556Z,55.78
2023-05-22T07:51:16.837Z,56.07
2023-05-22T07:52:21.837Z,56.00
2023-05-22T07:53:24.963Z,55.96
2023-05-22T07:54:31.405Z,55.59
2023-05-22T07:55:34.230Z,55.63
2023-05-22T07:56:40.711Z,54.89
2023-05-22T07:57:44.485Z,55.11
2023-05-22T07:58:53.630Z,55.29
2023-05-22T07:59:56.891Z,54.95
2023-05-22T08:00:59.697Z,54.44
2023-05-22T08:02:02.911Z,54.30
2023-05-22T08:03:06.047Z,54.45
2023-05-22T08:04:09.164Z,54.32
2023-05-22T08:05:12.428Z,53.93
2023-05-22T08:06:16.236Z,54.22
2023-05-22T08:07:18.980Z,54.45
2023-05-22T08:08:21.849Z,54.74
2023-05-22T08:09:24.631Z,54.81
2023-05-22T08:10:30.023Z,54.51
2023-05-22T08:11:42.205Z,53.93
2023-05-22T08:12:45.123Z,53.87
2023-05-22T08:13:47.981Z,54.10
2023-05-22T08:14:50.845Z,53.93
2023-05-22T08:16:00.325Z,53.91
2023-05-22T08:17:04.397Z,53.14
2023-05-22T08:18:07.381Z,53.13
2023-05-22T08:19:10.601Z,52.84
2023-05-22T08:20:13.761Z,52.19
2023-05-22T08:21:16.541Z,52.17
2023-05-22T08:22:19.278Z,51.08
2023-05-22T08:23:22.193Z,51.07
2023-05-22T08:24:28.629Z,50.94
2023-05-22T08:25:31.680Z,50.81
2023-05-22T08:26:34.631Z,50.70
2023-05-22T08:27:37.576Z,50.98
2023-05-22T08:28:44.107Z,51.04
2023-05-22T08:29:46.883Z,51.29
2023-05-22T08:30:50.310Z,50.99
2023-05-22T08:31:54.134Z,51.06
2023-05-22T08:32:57.180Z,51.32
2023-05-22T08:34:02.793Z,51.32
2023-05-22T08:35:06.178Z,51.20
2023-05-22T08:36:09.089Z,51.33
2023-05-22T08:37:14.217Z,51.60
2023-05-22T08:38:17.558Z,51.82
2023-05-22T08:39:20.359Z,51.76
2023-05-22T08:40:24.136Z,51.61
2023-05-22T08:41:27.260Z,51.77
2023-05-22T08:42:30.210Z,51.85
2023-05-22T08:43:33.068Z,51.62
2023-05-22T08:44:35.926Z,51.51
2023-05-22T08:45:42.518Z,51.48
2023-05-22T08:46:46.171Z,51.55
2023-05-22T08:47:53.175Z,51.50
2023-05-22T08:48:57.273Z,51.54
2023-05-22T08:50:00.195Z,51.19
2023-05-22T08:51:03.926Z,51.17
2023-05-22T08:52:27.061Z,51.14
2023-05-22T08:53:33.474Z,51.42
2023-05-22T08:54:36.796Z,51.53
2023-05-22T08:55:39.786Z,51.59
2023-05-22T08:56:52.894Z,51.56
2023-05-22T08:57:59.771Z,51.85
2023-05-22T08:59:03.453Z,51.78
2023-05-22T09:00:07.777Z,51.91
2023-05-22T09:01:11.036Z,52.09
2023-05-22T09:02:14.307Z,52.32
2023-05-22T09:03:18.495Z,52.28
2023-05-22T09:04:23.732Z,52.09
2023-05-22T09:05:26.611Z,52.58
2023-05-22T09:06:29.848Z,51.96
2023-05-22T09:07:32.657Z,51.92
2023-05-22T09:08:35.575Z,52.09
2023-05-22T09:09:41.653Z,52.55
2023-05-22T09:10:44.922Z,52.44
2023-05-22T09:11:47.747Z,52.15
2023-05-22T09:13:04.296Z,51.89
2023-05-22T09:14:08.530Z,52.00
2023-05-22T09:15:11.892Z,52.12
2023-05-22T09:16:15.185Z,52.45
2023-05-22T09:17:18.108Z,52.68
2023-05-22T09:18:22.115Z,52.64
2023-05-22T09:19:24.884Z,52.59
2023-05-22T09:20:27.687Z,52.94
2023-05-22T09:21:31.354Z,52.61
2023-05-22T09:22:38.295Z,52.46
2023-05-22T09:23:41.841Z,52.78
2023-05-22T09:24:45.876Z,52.51
2023-05-22T09:25:48.707Z,52.62
2023-05-22T09:26:53.058Z,52.78
2023-05-22T09:27:55.889Z,53.27
2023-05-22T09:28:59.399Z,53.02
2023-05-22T09:30:02.299Z,52.89
2023-05-22T09:31:06.355Z,53.35
2023-05-22T09:32:13.520Z,53.95
2023-05-22T09:33:17.034Z,54.31
2023-05-22T09:34:19.821Z,54.42
2023-05-22T09:35:25.708Z,54.72
2023-05-22T09:36:34.967Z,54.74
2023-05-22T09:37:37.768Z,54.90
2023-05-22T09:38:40.570Z,55.23
2023-05-22T09:39:46.470Z,55.34
2023-05-22T09:40:52.825Z,55.54
2023-05-22T09:42:01.164Z,55.63
2023-05-22T09:43:07.723Z,55.50
2023-05-22T09:44:14.511Z,55.18
2023-05-22T09:45:20.068Z,55.31
2023-05-22T09:46:22.812Z,55.45
2023-05-22T09:47:25.670Z,55.34
2023-05-22T09:48:28.578Z,55.61
2023-05-22T09:49:31.505Z,55.34
2023-05-22T09:50:34.567Z,55.37
2023-05-22T09:51:40.169Z,55.52
2023-05-22T09:52:44.483Z,55.74
2023-05-22T09:53:48.853Z,55.87
2023-05-22T09:54:55.565Z,55.91
2023-05-22T09:56:00.014Z,55.95
2023-05-22T09:57:05.530Z,56.23
2023-05-22T09:58:10.155Z,56.29
2023-05-22T09:59:13.977Z,56.49
2023-05-22T10:00:18.572Z,56.78
2023-05-22T10:01:23.074Z,56.89
2023-05-22T10:02:26.915Z,56.79
2023-05-22T10:03:31.513Z,56.11
2023-05-22T10:04:34.789Z,55.89
2023-05-22T10:05:40.918Z,55.62
2023-05-22T10:06:48.742Z,55.68
2023-05-22T10:07:52.132Z,56.22
2023-05-22T10:08:59.659Z,56.40
2023-05-22T10:10:05.185Z,55.70
2023-05-22T10:11:08.525Z,55.78
2023-05-22T10:12:16.267Z,55.68
2023-05-22T10:13:19.876Z,55.85
2023-05-22T10:14:23.687Z,55.97
2023-05-22T10:15:26.753Z,55.60
2023-05-22T10:16:30.270Z,55.41
2023-05-22T10:17:34.193Z,55.31
2023-05-22T10:18:38.043Z,55.62
2023-05-22T10:19:42.811Z,55.71
2023-05-22T10:20:47.144Z,56.18
2023-05-22T10:21:50.339Z,56.56
2023-05-22T10:22:53.736Z,57.31
2023-05-22T10:23:57.887Z,56.80
2023-05-22T10:25:01.342Z,57.07
2023-05-22T10:26:04.536Z,57.15
2023-05-22T10:27:07.601Z,56.27
2023-05-22T10:28:10.793Z,55.94
2023-05-22T10:29:20.652Z,55.88
2023-05-22T10:30:34.833Z,56.02
2023-05-22T10:32:18.047Z,56.30
2023-05-22T10:33:36.651Z,56.57
2023-05-22T10:34:50.709Z,56.34
2023-05-22T10:36:02.716Z,56.14
2023-05-22T10:37:17.342Z,55.97
2023-05-22T10:38:47.769Z,56.30
2023-05-22T10:40:00.936Z,56.73
2023-05-22T10:41:04.172Z,56.30
2023-05-22T10:42:12.015Z,56.24
2023-05-22T10:43:14.892Z,55.91
2023-05-22T10:44:18.140Z,56.02
2023-05-22T10:45:20.955Z,56.93
2023-05-22T10:46:23.876Z,56.57
2023-05-22T10:47:26.816Z,56.76
2023-05-22T10:48:30.492Z,56.07
2023-05-22T10:49:33.272Z,55.53
2023-05-22T10:50:36.296Z,55.80
2023-05-22T10:51:39.194Z,55.94
2023-05-22T10:52:41.982Z,55.30
2023-05-22T10:53:47.790Z,55.37
2023-05-22T10:54:54.468Z,55.67
2023-05-22T10:55:58.362Z,55.28
2023-05-22T10:57:14.399Z,55.24
2023-05-22T10:58:17.877Z,55.55
2023-05-22T10:59:33.529Z,56.28
2023-05-22T11:00:37.759Z,55.51
2023-05-22T11:01:40.884Z,55.10
2023-05-22T11:03:10.039Z,54.68
2023-05-22T11:04:24.903Z,54.11
2023-05-22T11:05:36.381Z,54.07
2023-05-22T11:06:43.291Z,53.31
2023-05-22T11:07:46.114Z,53.46
2023-05-22T11:08:49.739Z,53.61
2023-05-22T11:10:00.141Z,53.73
2023-05-22T11:11:11.153Z,53.93
2023-05-22T11:12:14.156Z,53.26
2023-05-22T11:13:17.616Z,52.93
2023-05-22T11:14:20.699Z,53.31
2023-05-22T11:15:30.670Z,53.77
2023-05-22T11:16:34.047Z,54.05
2023-05-22T11:17:39.785Z,53.78
2023-05-22T11:18:44.080Z,53.46
2023-05-22T11:19:49.121Z,53.41
2023-05-22T11:20:53.676Z,53.05
2023-05-22T11:22:00.236Z,53.22
2023-05-22T11:23:10.230Z,52.34
2023-05-22T11:24:15.762Z,51.11
2023-05-22T11:25:19.947Z,50.08
2023-05-22T11:26:26.294Z,49.44
2023-05-22T11:27:31.136Z,49.88
2023-05-22T11:28:33.913Z,50.14
2023-05-22T11:29:38.425Z,49.68
2023-05-22T11:30:41.792Z,49.40
2023-05-22T11:31:46.322Z,49.22
2023-05-22T11:32:49.123Z,48.71
2023-05-22T11:33:51.969Z,48.03
2023-05-22T11:34:56.827Z,47.76
2023-05-22T11:36:00.066Z,46.09
2023-05-22T11:37:02.873Z,45.50
2023-05-22T11:38:07.291Z,46.10
2023-05-22T11:39:14.663Z,45.12
2023-05-22T11:40:19.154Z,45.50
2023-05-22T11:41:22.056Z,44.96
2023-05-22T11:42:25.225Z,45.38
2023-05-22T11:43:28.624Z,44.92
2023-05-22T11:44:31.375Z,45.50
2023-05-22T11:45:37.101Z,45.01
2023-05-22T11:46:40.329Z,43.67
2023-05-22T11:47:43.686Z,44.09
2023-05-22T11:48:47.495Z,43.16
2023-05-22T11:49:50.345Z,42.89
2023-05-22T11:50:53.428Z,42.34
2023-05-22T11:51:56.235Z,41.35
2023-05-22T11:52:59.438Z,40.77
2023-05-22T11:54:02.566Z,41.30
2023-05-22T11:55:08.558Z,40.82
2023-05-22T11:56:11.382Z,40.38
2023-05-22T11:57:14.745Z,40.61
2023-05-22T11:58:22.359Z,40.47
2023-05-22T11:59:25.112Z,39.68
2023-05-22T12:00:29.362Z,39.77
2023-05-22T12:01:32.502Z,39.15
2023-05-22T12:02:35.983Z,37.83
2023-05-22T12:03:38.940Z,37.68
2023-05-22T12:04:42.135Z,36.61
2023-05-22T12:05:45.637Z,37.20
2023-05-22T12:06:48.468Z,38.08
2023-05-22T12:07:51.534Z,38.16
2023-05-22T12:08:54.423Z,35.57
2023-05-22T12:09:57.926Z,34.94
2023-05-22T12:11:00.810Z,36.07
2023-05-22T12:12:03.655Z,35.84
2023-05-22T12:13:06.413Z,34.99
2023-05-22T12:14:11.472Z,35.03
2023-05-22T12:15:14.314Z,35.59
2023-05-22T12:16:21.948Z,35.22
2023-05-22T12:17:24.977Z,35.61
2023-05-22T12:18:35.443Z,35.75
2023-05-22T12:19:39.950Z,34.96
2023-05-22T12:20:43.786Z,34.31
2023-05-22T12:21:46.584Z,35.12
2023-05-22T12:22:49.460Z,34.09
2023-05-22T12:23:52.401Z,34.36
2023-05-22T12:24:55.680Z,33.93
2023-05-22T12:25:59.232Z,32.50
2023-05-22T12:27:01.969Z,32.97
2023-05-22T12:28:07.802Z,33.16
2023-05-22T12:29:10.507Z,32.45
2023-05-22T12:30:13.656Z,31.62
2023-05-22T12:31:23.086Z,31.76
2023-05-22T12:32:27.062Z,31.47
2023-05-22T12:33:30.168Z,30.69
2023-05-22T12:34:34.250Z,31.17
2023-05-22T12:35:38.279Z,30.62
2023-05-22T12:36:42.115Z,31.17
2023-05-22T12:37:48.788Z,31.23
2023-05-22T12:38:55.148Z,31.52
2023-05-22T12:39:58.629Z,30.31
2023-05-22T12:41:01.624Z,30.99
2023-05-22T12:42:04.473Z,30.33
2023-05-22T12:43:07.333Z,29.95
2023-05-22T12:44:10.449Z,30.01
2023-05-22T12:45:14.011Z,29.59
2023-05-22T12:46:16.948Z,29.86
2023-05-22T12:47:20.205Z,30.11
2023-05-22T12:48:23.125Z,29.84
2023-05-22T12:49:25.955Z,29.54
2023-05-22T12:50:28.740Z,27.50
2023-05-22T12:51:32.139Z,28.16
2023-05-22T12:52:35.939Z,27.96
2023-05-22T12:53:38.742Z,27.38
2023-05-22T12:54:41.713Z,27.51
2023-05-22T12:55:44.571Z,26.78
2023-05-22T12:56:47.282Z,27.72
2023-05-22T12:57:50.076Z,27.91
2023-05-22T12:58:52.957Z,26.27
2023-05-22T12:59:55.730Z,27.24
2023-05-22T13:00:58.603Z,26.86
2023-05-22T13:02:03.114Z,26.79
2023-05-22T13:03:06.584Z,26.86
2023-05-22T13:04:09.789Z,26.72
2023-05-22T13:05:12.633Z,26.09
2023-05-22T13:06:15.697Z,26.61
2023-05-22T13:07:18.390Z,26.03
2023-05-22T13:08:22.311Z,26.08
2023-05-22T13:09:25.082Z,26.37
2023-05-22T13:10:28.139Z,26.19
2023-05-22T13:11:31.125Z,26.09
2023-05-22T13:12:33.926Z,25.88
2023-05-22T13:13:36.598Z,26.15
2023-05-22T13:14:40.540Z,25.70
2023-05-22T13:15:43.659Z,26.44
2023-05-22T13:16:46.854Z,25.90
2023-05-22T13:17:49.712Z,26.15
2023-05-22T13:18:52.583Z,25.69
2023-05-22T13:19:56.071Z,25.42
2023-05-22T13:21:00.147Z,25.63
2023-05-22T13:22:03.040Z,24.44
2023-05-22T13:23:06.009Z,24.33
2023-05-22T13:24:08.767Z,24.69
2023-05-22T13:25:13.398Z,24.61
2023-05-22T13:26:16.324Z,24.49
2023-05-22T13:27:19.284Z,24.76
2023-05-22T13:28:22.076Z,25.02
2023-05-22T13:29:24.822Z,24.67
2023-05-22T13:30:28.544Z,25.15
2023-05-22T13:31:37.113Z,25.48
2023-05-22T13:32:40.147Z,25.86
2023-05-22T13:33:43.050Z,26.11
2023-05-22T13:34:45.970Z,26.05
2023-05-22T13:35:49.018Z,26.19
2023-05-22T13:36:51.796Z,26.45
2023-05-22T13:37:54.657Z,25.90
2023-05-22T13:38:57.430Z,25.71
2023-05-22T13:40:00.569Z,26.26
2023-05-22T13:41:03.374Z,26.32
2023-05-22T13:42:06.567Z,26.30
2023-05-22T13:43:09.575Z,26.34
2023-05-22T13:44:12.640Z,25.93
2023-05-22T13:45:15.353Z,25.52
2023-05-22T13:46:18.354Z,25.49
2023-05-22T13:47:23.104Z,25.22
2023-05-22T13:48:26.188Z,25.73
2023-05-22T13:49:29.084Z,25.96
2023-05-22T13:50:32.089Z,25.42
2023-05-22T13:51:34.923Z,25.41
2023-05-22T13:52:37.994Z,25.82
2023-05-22T13:53:41.109Z,25.42
2023-05-22T13:54:43.918Z,25.71
2023-05-22T13:55:46.669Z,25.89